Terminal Aerodrome Forecast
Issued by NWS Knoxville/Tri Cities, TN

Home | Current Version | Previous Version | Text Only | Print | Product List | Glossary On
Versions: 1 2 3 4 5 6 7 8 9 10 11 12 13 14 15 16 17 18 19 20 21 22 23 24 25 26 27 28 29 30 31 32 33 34 35 36 37 38 39 40 41 42 43 44 45 46
000
FTUS44 KMRX 251018 AAA
TAFCHA
TAF AMD
KCHA 251018Z 2510/2606 36004KT P6SM SCT150 BKN250
     FM251300 33005KT P6SM -RA SCT040 OVC120
     FM251430 35006KT P6SM FEW050 BKN150
     FM251600 01010KT P6SM FEW150 BKN250
     FM260100 35003KT P6SM SCT250=

USA.gov is the U.S. government's official web portal to all federal, state and local government web resources and services.